Time;durP1;ratioP1;P1;durP2;ratioP2;P2;SDS_P1;SDS_P2;PMS_P1;PMS_P2;Temp;Humidity;BMP_temperature;BMP_pressure;BME280_temperature;BME280_humidity;BME280_pressure;Samples;Min_cycle;Max_cycle;Signal;HPM_P1;HPM_P2
2022/09/16 00:00:42;;;;;;;7.30;2.38;;;;;;;13.98;77.80;101035.63;5013761;28;20036;-85
2022/09/16 00:03:07;;;;;;;7.13;2.60;;;;;;;13.99;77.71;101025.88;5013619;28;20030;-82
2022/09/16 00:05:33;;;;;;;9.30;2.42;;;;;;;13.93;78.04;101031.22;5013712;28;20038;-82
2022/09/16 00:07:59;;;;;;;9.32;2.50;;;;;;;13.89;78.48;101024.13;5013947;28;20116;-85
2022/09/16 00:10:24;;;;;;;10.65;2.67;;;;;;;13.86;78.59;101030.31;5013614;28;20117;-85
2022/09/16 00:12:50;;;;;;;8.13;2.40;;;;;;;13.85;78.43;101017.91;5013582;28;20467;-85
2022/09/16 00:15:16;;;;;;;8.30;2.50;;;;;;;13.79;78.11;101025.91;4996133;28;20045;-85
2022/09/16 00:17:42;;;;;;;12.10;2.58;;;;;;;13.77;78.76;101014.38;4996773;28;20379;-85
2022/09/16 00:20:08;;;;;;;8.27;2.60;;;;;;;13.82;78.95;101019.69;4979723;28;20121;-85
2022/09/16 00:22:34;;;;;;;9.75;2.80;;;;;;;13.75;79.15;101016.16;4979829;28;20080;-85
2022/09/16 00:24:59;;;;;;;5.57;2.80;;;;;;;13.68;79.71;101009.94;4992673;28;20054;-85
2022/09/16 00:27:25;;;;;;;9.90;2.63;;;;;;;13.70;79.82;101015.25;4992404;28;20062;-85
2022/09/16 00:29:50;;;;;;;6.90;2.58;;;;;;;13.68;79.75;101009.06;4993841;28;20058;-84
2022/09/16 00:32:15;;;;;;;8.90;2.78;;;;;;;13.74;79.44;101009.03;4993912;28;20042;-84
2022/09/16 00:34:41;;;;;;;5.68;2.30;;;;;;;13.75;79.48;101011.72;4994129;28;20033;-84
2022/09/16 00:37:08;;;;;;;5.40;2.70;;;;;;;13.81;79.17;101009.94;4993852;28;20026;-84
2022/09/16 00:39:34;;;;;;;11.70;2.97;;;;;;;13.78;78.65;101002.84;4993612;28;20036;-84
2022/09/16 00:42:01;;;;;;;5.18;2.30;;;;;;;13.87;78.66;101008.16;4994071;28;20042;-84
2022/09/16 00:44:52;;;;;;;8.00;2.50;;;;;;;13.97;78.41;101017.03;4994013;28;20122;-85
2022/09/16 00:47:27;;;;;;;6.00;2.33;;;;;;;13.96;78.42;101013.50;4994693;28;20030;-84
2022/09/16 00:49:58;;;;;;;5.10;2.30;;;;;;;13.92;78.42;101010.84;4997779;28;20040;-85
2022/09/16 00:52:25;;;;;;;7.72;2.60;;;;;;;13.91;78.16;101014.38;4997315;28;20114;-86
2022/09/16 00:54:51;;;;;;;6.07;2.50;;;;;;;13.86;78.39;101008.16;4997450;28;20041;-85
2022/09/16 00:57:16;;;;;;;7.45;2.50;;;;;;;13.82;78.26;100999.31;4997145;28;20034;-85
2022/09/16 00:59:51;;;;;;;5.03;2.20;;;;;;;13.78;78.48;101003.72;4996192;28;20118;-85
2022/09/16 01:02:18;;;;;;;6.18;2.70;;;;;;;13.70;78.56;101002.88;4996835;28;20034;-85
2022/09/16 01:04:49;;;;;;;6.10;2.15;;;;;;;13.70;78.45;101005.53;4995414;28;20049;-85
2022/09/16 01:07:14;;;;;;;8.23;2.53;;;;;;;13.66;78.50;101006.41;4996466;28;20034;-85
2022/09/16 01:09:40;;;;;;;7.43;2.42;;;;;;;13.68;78.35;101012.59;4996829;28;20462;-85
2022/09/16 01:12:06;;;;;;;10.82;2.67;;;;;;;13.60;78.56;101002.84;4997595;28;20046;-85
2022/09/16 01:17:56;;;;;;;9.70;2.67;;;;;;;13.39;79.66;101003.72;4997369;28;20049;-84
2022/09/16 01:21:02;;;;;;;9.35;2.28;;;;;;;13.37;79.54;100995.75;4996736;28;20386;-89
2022/09/16 01:23:56;;;;;;;7.97;2.70;;;;;;;13.35;79.47;100999.28;4988429;28;20093;-85
2022/09/16 01:26:49;;;;;;;8.43;2.60;;;;;;;13.28;79.84;100993.97;5016511;28;20125;-85
2022/09/16 01:29:36;;;;;;;8.35;2.67;;;;;;;13.23;80.10;100992.16;5015767;28;20096;-85
2022/09/16 01:32:20;;;;;;;10.52;2.88;;;;;;;13.19;79.96;100996.56;5016225;28;20034;-85
2022/09/16 01:35:23;;;;;;;10.63;2.80;;;;;;;13.24;79.76;100996.63;5016333;28;20029;-84
2022/09/16 01:38:00;;;;;;;;;;;;;;;13.36;78.19;100990.41;5014391;28;20074;-85
2022/09/16 01:40:33;;;;;;;6.68;2.63;;;;;;;13.24;79.33;100983.34;5016176;28;19913;-85
2022/09/16 01:43:05;;;;;;;7.30;2.58;;;;;;;13.21;79.48;100991.25;5015877;28;20036;-85
2022/09/16 01:45:40;;;;;;;6.55;2.22;;;;;;;13.24;79.21;100997.50;5015817;28;20037;-85
2022/09/16 01:48:30;;;;;;;6.32;2.50;;;;;;;13.18;79.63;100986.81;5016479;28;20057;-84
2022/09/16 01:51:07;;;;;;;10.80;2.90;;;;;;;13.08;79.61;100990.34;5015645;28;20038;-85
2022/09/16 01:53:38;;;;;;;8.50;2.78;;;;;;;12.96;79.85;100991.19;5015701;28;20033;-85
2022/09/16 01:56:19;;;;;;;10.90;2.60;;;;;;;12.91;79.85;100982.31;5015693;28;20053;-85
2022/09/16 01:58:47;;;;;;;7.68;2.70;;;;;;;12.83;79.96;100983.19;5014758;28;20077;-84
2022/09/16 02:01:30;;;;;;;7.35;2.60;;;;;;;12.79;80.11;100992.88;5015803;28;20037;-85
2022/09/16 02:04:02;;;;;;;5.63;2.60;;;;;;;12.79;80.08;100993.78;4998770;28;20454;-86
2022/09/16 02:06:30;;;;;;;7.00;2.85;;;;;;;12.81;80.12;101003.53;5015174;28;20132;-85
2022/09/16 02:09:03;;;;;;;6.40;2.75;;;;;;;12.77;79.90;100999.97;4997984;28;20037;-86
2022/09/16 02:11:29;;;;;;;7.90;2.92;;;;;;;12.74;79.63;101000.81;4998603;28;20026;-85
2022/09/16 02:14:08;;;;;;;7.18;3.00;;;;;;;12.68;80.14;101003.47;5015238;28;20537;-85
2022/09/16 02:16:52;;;;;;;7.05;2.50;;;;;;;12.73;80.37;101008.78;5015081;28;20052;-85
2022/09/16 02:19:30;;;;;;;7.10;2.70;;;;;;;12.66;79.96;101009.63;5014961;28;20033;-85
2022/09/16 02:22:00;;;;;;;11.20;2.72;;;;;;;12.66;80.06;101006.97;5015218;28;20037;-86
2022/09/16 02:24:28;;;;;;;9.32;2.95;;;;;;;12.67;79.86;100999.00;5015248;28;20140;-85
2022/09/16 02:27:02;;;;;;;10.52;3.03;;;;;;;12.63;80.08;101004.28;5014986;28;20037;-85
2022/09/16 02:29:36;;;;;;;6.82;2.90;;;;;;;12.57;80.63;101005.16;5014723;28;20040;-86
2022/09/16 02:32:04;;;;;;;8.13;2.80;;;;;;;12.52;80.79;100991.00;5014724;28;20044;-86
2022/09/16 02:34:37;;;;;;;6.25;2.88;;;;;;;12.53;80.79;100996.31;5014872;28;20088;-84
2022/09/16 02:37:31;;;;;;;8.05;2.90;;;;;;;12.61;80.41;101004.31;5015438;28;20026;-85
2022/09/16 02:40:03;;;;;;;7.60;2.88;;;;;;;12.61;80.66;101001.66;5014896;28;20057;-85
2022/09/16 02:42:29;;;;;;;9.63;2.97;;;;;;;12.62;80.23;100994.56;5015417;28;20038;-85
2022/09/16 02:44:55;;;;;;;6.20;2.80;;;;;;;12.58;80.78;100988.38;5014753;28;20042;-85
2022/09/16 02:47:30;;;;;;;5.95;2.60;;;;;;;12.59;80.60;100986.59;5014408;28;20030;-85
2022/09/16 02:50:13;;;;;;;8.50;2.67;;;;;;;12.65;80.28;100994.59;5014665;28;20458;-86
2022/09/16 02:52:43;;;;;;;12.82;2.95;;;;;;;12.61;80.03;100995.47;5014959;28;20053;-85
2022/09/16 02:55:41;;;;;;;6.55;2.88;;;;;;;12.72;79.84;100999.94;5014337;28;20029;-85
2022/09/16 02:58:08;;;;;;;6.28;2.60;;;;;;;12.70;79.78;100996.38;5014598;28;20506;-85
2022/09/16 03:00:40;;;;;;;8.30;2.58;;;;;;;12.73;79.37;100995.53;5014079;28;20056;-85
2022/09/16 03:03:07;;;;;;;7.93;2.60;;;;;;;12.69;79.94;100984.00;5014517;28;20470;-85
2022/09/16 03:05:33;;;;;;;6.25;2.45;;;;;;;12.78;79.89;100988.47;5014107;28;20034;-85
2022/09/16 03:08:02;;;;;;;7.65;2.45;;;;;;;12.84;79.62;100993.78;5014392;28;20516;-85
2022/09/16 03:10:38;;;;;;;7.05;2.40;;;;;;;12.92;79.46;100991.16;5013912;28;20030;-85
2022/09/16 03:13:59;;;;;;;5.90;2.38;;;;;;;13.03;79.01;100992.09;5014005;28;20489;-86
2022/09/16 03:16:49;;;;;;;6.80;2.30;;;;;;;13.02;78.74;100990.34;4980474;28;20077;-86
2022/09/16 03:19:26;;;;;;;5.70;2.08;;;;;;;12.98;78.99;100986.78;5014252;28;20026;-85
2022/09/16 03:22:05;;;;;;;7.30;2.17;;;;;;;13.00;79.13;100984.13;5014698;28;20022;-86
2022/09/16 03:24:58;;;;;;;5.82;2.17;;;;;;;12.95;79.72;100989.41;5013768;28;20081;-85
2022/09/16 03:27:39;;;;;;;5.50;2.20;;;;;;;12.95;79.98;100985.88;4995883;28;20041;-86
2022/09/16 03:30:08;;;;;;;6.88;2.30;;;;;;;12.90;79.89;100983.22;5014039;28;20065;-85
2022/09/16 03:32:44;;;;;;;9.98;2.17;;;;;;;13.03;79.74;100992.09;5013990;28;20084;-85
2022/09/16 03:35:24;;;;;;;7.75;2.40;;;;;;;13.02;79.41;100993.00;5014322;28;20030;-85
2022/09/16 03:37:54;;;;;;;8.23;2.03;;;;;;;13.00;79.43;100989.44;5013658;28;20542;-84
2022/09/16 03:40:21;;;;;;;4.82;2.13;;;;;;;13.01;79.53;100989.41;4998334;28;20129;-84
2022/09/16 03:42:46;;;;;;;4.78;2.00;;;;;;;12.99;79.52;100983.25;4997128;28;20125;-84
2022/09/16 03:45:17;;;;;;;9.80;2.45;;;;;;;13.00;79.62;100989.44;5014623;28;20033;-84
2022/09/16 03:47:45;;;;;;;9.45;1.90;;;;;;;13.11;79.93;100981.50;4996345;28;20479;-84
2022/09/16 03:50:11;;;;;;;4.97;2.08;;;;;;;13.03;79.46;100984.13;4996740;28;20459;-83
2022/09/16 03:52:36;;;;;;;7.05;2.08;;;;;;;13.03;79.25;100976.19;5014461;28;20092;-84
2022/09/16 03:55:02;;;;;;;5.55;2.00;;;;;;;13.02;79.76;100985.91;5014090;28;20029;-84
2022/09/16 03:57:29;;;;;;;7.00;2.20;;;;;;;13.01;79.53;100981.47;4996139;28;20482;-84
2022/09/16 03:59:54;;;;;;;5.97;2.00;;;;;;;13.00;79.58;100986.78;5013746;28;20038;-84
2022/09/16 04:02:22;;;;;;;5.90;1.80;;;;;;;12.95;79.97;100976.16;5014037;28;20030;-84
2022/09/16 04:04:48;;;;;;;5.32;2.00;;;;;;;13.02;79.47;100988.56;4995993;28;20034;-84
2022/09/16 04:07:14;;;;;;;4.55;1.92;;;;;;;13.02;79.33;100987.69;5013942;28;20030;-85
2022/09/16 04:09:41;;;;;;;10.43;1.98;;;;;;;13.03;79.17;100989.44;5013658;28;20038;-84
2022/09/16 04:12:07;;;;;;;8.52;2.22;;;;;;;12.98;79.58;100986.78;5014204;28;20136;-83
2022/09/16 04:14:34;;;;;;;7.35;2.25;;;;;;;12.93;79.54;100987.63;5013554;28;20034;-84
2022/09/16 04:17:00;;;;;;;5.97;2.20;;;;;;;12.92;79.65;100984.09;5013570;28;20100;-84
2022/09/16 04:19:25;;;;;;;6.97;2.30;;;;;;;12.98;79.73;100994.75;5013319;28;20438;-83
2022/09/16 04:21:51;;;;;;;5.10;1.92;;;;;;;12.98;79.34;100992.09;5013895;28;20053;-84
2022/09/16 04:24:16;;;;;;;5.25;1.92;;;;;;;12.91;78.81;100982.31;4985157;28;20051;-84
2022/09/16 04:26:42;;;;;;;4.70;2.20;;;;;;;12.95;79.50;100991.19;4960945;28;20125;-84
2022/09/16 04:29:11;;;;;;;4.97;2.13;;;;;;;12.91;79.59;100995.59;4978356;28;20057;-84
2022/09/16 04:31:36;;;;;;;3.78;1.98;;;;;;;12.96;79.19;100988.53;4978455;28;20110;-84
2022/09/16 04:34:03;;;;;;;7.03;2.20;;;;;;;12.96;79.28;100992.94;4977346;28;20158;-88
2022/09/16 04:36:28;;;;;;;5.10;2.10;;;;;;;12.94;79.19;100992.06;4978228;28;20134;-84
2022/09/16 04:38:54;;;;;;;7.38;2.40;;;;;;;12.98;79.37;101001.81;4977883;28;20467;-84
2022/09/16 04:41:22;;;;;;;4.35;1.95;;;;;;;12.93;79.50;100999.16;4978586;28;20034;-84
2022/09/16 04:43:53;;;;;;;4.22;1.92;;;;;;;12.92;80.13;100989.41;4977802;28;20031;-84
2022/09/16 04:46:19;;;;;;;5.38;1.90;;;;;;;12.92;79.97;100996.47;4978024;28;20187;-84
2022/09/16 04:48:48;;;;;;;6.32;2.28;;;;;;;12.87;80.20;100995.56;4976495;28;20126;-84
2022/09/16 04:51:15;;;;;;;7.38;2.20;;;;;;;12.74;80.34;100982.25;4976648;28;20054;-84
2022/09/16 04:53:42;;;;;;;8.73;2.20;;;;;;;12.76;80.85;100985.81;4976394;28;20389;-85
2022/09/16 04:56:14;;;;;;;4.90;2.05;;;;;;;12.77;81.33;100989.34;4977640;28;20031;-84
2022/09/16 04:58:48;;;;;;;7.75;2.35;;;;;;;12.79;80.98;100972.56;4976467;28;20042;-84
2022/09/16 05:01:26;;;;;;;4.97;1.77;;;;;;;12.81;80.78;100967.28;4977289;28;20027;-84
2022/09/16 05:03:53;;;;;;;9.60;2.40;;;;;;;12.81;81.02;100967.28;4977724;28;20030;-83
2022/09/16 05:06:21;;;;;;;9.27;2.20;;;;;;;12.88;81.14;100974.34;4977514;28;20027;-83
2022/09/16 05:08:48;;;;;;;5.65;1.98;;;;;;;12.93;80.77;100988.53;4977484;28;20031;-83
2022/09/16 05:11:19;;;;;;;5.95;2.20;;;;;;;12.89;80.90;100983.19;4977503;28;20430;-84
2022/09/16 05:13:45;;;;;;;9.85;2.20;;;;;;;12.85;80.92;100984.97;4976139;28;20031;-84
2022/09/16 05:16:13;;;;;;;6.80;2.13;;;;;;;12.91;80.97;100992.06;4992298;28;20039;-84
2022/09/16 05:18:40;;;;;;;6.57;2.47;;;;;;;12.86;80.91;101001.78;4977589;28;20383;-84
2022/09/16 05:21:11;;;;;;;4.57;1.80;;;;;;;12.83;81.14;100997.31;4977017;28;20045;-84
2022/09/16 05:23:37;;;;;;;4.25;2.28;;;;;;;12.77;81.02;100992.00;4976236;28;20057;-84
2022/09/16 05:26:04;;;;;;;4.88;2.03;;;;;;;12.84;80.91;101001.75;4977204;28;20027;-84
2022/09/16 05:28:30;;;;;;;3.72;1.90;;;;;;;12.78;80.67;101002.59;4977150;28;20034;-84
2022/09/16 05:31:09;;;;;;;6.25;1.80;;;;;;;12.87;80.67;101014.13;4977007;28;20041;-84
2022/09/16 05:33:34;;;;;;;3.97;1.80;;;;;;;12.85;80.65;101016.78;4977055;28;20135;-84
2022/09/16 05:36:18;;;;;;;4.18;1.90;;;;;;;12.81;80.78;101003.53;4977023;28;20159;-84
2022/09/16 05:38:44;;;;;;;4.30;1.90;;;;;;;12.82;79.55;100990.25;4975575;28;20057;-84
2022/09/16 05:41:10;;;;;;;4.78;2.20;;;;;;;12.88;80.39;100998.22;4976652;28;20055;-84
2022/09/16 05:43:36;;;;;;;8.18;2.00;;;;;;;12.80;80.20;100992.00;4976580;28;20031;-84
2022/09/16 05:46:03;;;;;;;5.25;1.85;;;;;;;12.84;80.48;101003.50;4992500;28;20049;-82
2022/09/16 05:48:29;;;;;;;5.30;1.80;;;;;;;12.84;80.64;100999.09;4976753;28;20035;-82
2022/09/16 05:51:00;;;;;;;4.90;1.73;;;;;;;12.72;81.16;101004.38;4976654;28;20027;-83
2022/09/16 05:53:26;;;;;;;5.30;1.90;;;;;;;12.75;81.64;101005.25;4976777;28;20463;-82
2022/09/16 05:55:55;;;;;;;4.30;1.90;;;;;;;12.78;81.81;101009.69;4977281;28;20093;-83
2022/09/16 05:58:21;;;;;;;5.63;1.95;;;;;;;12.80;81.94;101005.25;4976551;28;20043;-81
2022/09/16 06:00:46;;;;;;;4.18;2.05;;;;;;;12.75;82.26;100999.06;4976941;28;20448;-81
2022/09/16 06:03:12;;;;;;;6.40;2.10;;;;;;;12.83;82.30;101004.41;4976628;28;20486;-82
2022/09/16 06:05:38;;;;;;;10.15;2.17;;;;;;;12.87;82.21;101007.06;4976420;28;20407;-82
2022/09/16 06:08:03;;;;;;;6.00;1.95;;;;;;;12.83;82.67;100996.44;4975646;28;20105;-82
2022/09/16 06:10:29;;;;;;;5.88;2.03;;;;;;;12.85;82.69;101002.63;4976038;28;20031;-82
2022/09/16 06:12:54;;;;;;;8.32;2.30;;;;;;;12.96;83.02;101000.91;4975131;28;20049;-83
2022/09/16 06:15:20;;;;;;;6.70;2.03;;;;;;;13.07;82.22;100999.19;4976062;28;20034;-82
2022/09/16 06:17:45;;;;;;;6.72;2.20;;;;;;;13.19;82.50;101011.56;4975916;28;20026;-84
2022/09/16 06:20:13;;;;;;;7.10;1.95;;;;;;;13.24;82.59;101024.03;4976196;28;20031;-82
2022/09/16 06:22:41;;;;;;;6.75;2.13;;;;;;;13.36;82.84;101031.16;4974995;28;20498;-82
2022/09/16 06:25:07;;;;;;;3.83;1.90;;;;;;;13.42;82.57;101025.84;5013150;28;20535;-81
2022/09/16 06:27:32;;;;;;;7.70;2.15;;;;;;;13.39;81.89;101020.50;5014994;28;20121;-81
2022/09/16 06:29:58;;;;;;;7.88;2.30;;;;;;;13.33;82.11;101023.16;4997143;28;20114;-81
2022/09/16 06:32:23;;;;;;;5.88;2.17;;;;;;;13.30;81.89;101024.94;4997426;28;20062;-82
2022/09/16 06:34:49;;;;;;;8.00;2.00;;;;;;;13.24;82.36;101020.50;5014624;28;20030;-81
2022/09/16 06:37:15;;;;;;;6.63;2.00;;;;;;;13.26;82.23;101024.03;5015243;28;20410;-81
2022/09/16 06:39:41;;;;;;;6.65;2.22;;;;;;;13.30;82.82;101031.13;4997715;28;20029;-81
2022/09/16 06:42:07;;;;;;;7.18;2.05;;;;;;;13.31;82.82;101039.97;5014487;28;20038;-81
2022/09/16 06:44:33;;;;;;;6.57;2.20;;;;;;;13.31;82.54;101037.31;5014345;28;20033;-82
2022/09/16 06:46:58;;;;;;;4.38;2.00;;;;;;;13.33;82.54;101041.75;5014884;28;20528;-82
2022/09/16 06:49:24;;;;;;;3.90;1.85;;;;;;;13.35;82.72;101047.06;4996942;28;20105;-82
2022/09/16 06:51:50;;;;;;;7.82;2.00;;;;;;;13.36;82.77;101041.75;5014378;28;20466;-82
2022/09/16 06:54:16;;;;;;;5.35;1.80;;;;;;;13.39;83.38;101039.09;5014572;28;20117;-81
2022/09/16 06:56:41;;;;;;;7.63;1.75;;;;;;;13.43;82.70;101038.22;5014261;28;20037;-81
2022/09/16 06:59:08;;;;;;;4.38;1.90;;;;;;;13.42;81.92;101033.81;5014708;28;20046;-81
2022/09/16 07:01:33;;;;;;;5.43;1.95;;;;;;;13.36;82.39;101039.13;4980746;28;20030;-81
2022/09/16 07:04:04;;;;;;;5.85;2.00;;;;;;;13.32;82.22;101039.06;4981088;28;20033;-81
2022/09/16 07:06:30;;;;;;;5.90;2.00;;;;;;;13.43;82.90;101040.00;5014635;28;20025;-82
2022/09/16 07:08:55;;;;;;;5.22;1.90;;;;;;;13.64;82.30;101032.06;5014584;28;20123;-82
2022/09/16 07:11:22;;;;;;;5.45;2.20;;;;;;;13.85;82.08;101036.50;5014724;28;20068;-82
2022/09/16 07:13:49;;;;;;;6.22;2.20;;;;;;;14.10;81.61;101034.75;5014747;28;20038;-82
2022/09/16 07:16:23;;;;;;;5.13;2.10;;;;;;;14.49;81.41;101033.81;5014439;28;20030;-82
2022/09/16 07:18:57;;;;;;;7.72;2.00;;;;;;;14.71;78.33;101033.75;5014248;28;20069;-82
2022/09/16 07:21:27;;;;;;;4.75;2.00;;;;;;;14.94;78.48;101026.56;4996720;28;20034;-82
2022/09/16 07:23:54;;;;;;;7.65;2.20;;;;;;;15.19;77.01;101030.00;5014023;28;20395;-84
2022/09/16 07:26:22;;;;;;;8.55;2.00;;;;;;;15.43;75.37;101033.44;5014020;28;20030;-82
2022/09/16 07:28:49;;;;;;;4.88;1.85;;;;;;;15.69;74.15;101036.84;5014268;28;20493;-83
2022/09/16 07:31:24;;;;;;;4.55;2.00;;;;;;;16.02;75.04;101038.34;5014496;28;20038;-82
2022/09/16 07:33:51;;;;;;;5.70;2.00;;;;;;;16.30;72.76;101034.53;5014011;28;20026;-83
2022/09/16 07:36:22;;;;;;;3.28;1.77;;;;;;;16.57;72.78;101038.69;5014284;28;20033;-82
2022/09/16 07:38:49;;;;;;;5.75;2.08;;;;;;;16.71;71.09;101043.00;5014048;28;20121;-83
2022/09/16 07:41:20;;;;;;;5.03;1.80;;;;;;;16.82;69.53;101042.00;4996495;28;20116;-83
2022/09/16 07:43:46;;;;;;;4.15;1.90;;;;;;;16.95;70.00;101054.31;4996869;28;20037;-83
2022/09/16 07:46:15;;;;;;;4.78;1.90;;;;;;;17.00;69.22;101060.47;5013646;28;20105;-83
2022/09/16 07:48:41;;;;;;;4.00;2.00;;;;;;;16.74;69.08;101056.34;5014370;28;20033;-83
2022/09/16 07:51:09;;;;;;;5.47;2.10;;;;;;;16.45;71.60;101053.06;5013753;28;20033;-83
2022/09/16 07:53:35;;;;;;;6.70;1.90;;;;;;;16.08;72.67;101042.75;5013858;28;20580;-83
2022/09/16 07:56:09;;;;;;;4.30;1.70;;;;;;;15.79;73.40;101034.97;5014589;28;20060;-82
2022/09/16 07:58:35;;;;;;;4.45;1.73;;;;;;;15.64;74.65;101049.31;5017025;28;20030;-83
2022/09/16 08:01:01;;;;;;;5.65;2.05;;;;;;;15.50;75.11;101057.34;5017782;28;20038;-82
2022/09/16 08:03:27;;;;;;;5.30;2.15;;;;;;;15.39;74.52;101055.66;5017757;28;20038;-82
2022/09/16 08:05:59;;;;;;;5.00;2.20;;;;;;;15.31;75.74;101055.69;5000157;28;20033;-83
2022/09/16 08:08:25;;;;;;;5.97;2.40;;;;;;;15.58;76.08;101064.41;5017691;28;20032;-83
2022/09/16 08:10:54;;;;;;;6.70;2.05;;;;;;;15.81;75.19;101073.16;4983683;28;20120;-82
2022/09/16 08:13:23;;;;;;;5.32;2.30;;;;;;;16.10;73.54;101058.72;5017602;28;20385;-83
2022/09/16 08:15:49;;;;;;;6.15;2.13;;;;;;;16.21;72.63;101062.19;5017594;28;20033;-83
2022/09/16 08:18:14;;;;;;;7.25;2.30;;;;;;;16.45;72.76;101066.41;5017391;28;20153;-83
2022/09/16 08:20:40;;;;;;;4.85;2.00;;;;;;;16.72;71.94;101068.81;5017369;28;20045;-85
2022/09/16 08:23:08;;;;;;;6.13;2.10;;;;;;;16.94;70.52;101061.44;5016965;28;20121;-83
2022/09/16 08:25:35;;;;;;;4.47;1.90;;;;;;;17.19;69.60;101067.34;5000404;28;20136;-83
2022/09/16 08:28:01;;;;;;;6.25;2.40;;;;;;;17.36;68.26;101067.13;5017579;28;20065;-83
2022/09/16 08:30:26;;;;;;;5.28;2.30;;;;;;;17.60;67.99;101071.25;5016867;28;20030;-84
2022/09/16 08:32:58;;;;;;;6.55;2.20;;;;;;;17.68;68.13;101069.34;5017784;28;20033;-85
2022/09/16 08:35:24;;;;;;;5.40;1.98;;;;;;;17.86;67.82;101078.91;5017190;28;20477;-84
2022/09/16 08:37:50;;;;;;;5.95;2.03;;;;;;;18.04;66.55;101079.53;5017112;28;20144;-84
2022/09/16 08:40:21;;;;;;;7.45;1.98;;;;;;;18.10;66.65;101077.63;4999413;28;20062;-84
2022/09/16 08:43:14;;;;;;;5.65;2.25;;;;;;;18.27;65.86;101069.31;5000225;28;20036;-83
2022/09/16 08:45:53;;;;;;;7.75;2.10;;;;;;;18.46;65.20;101065.41;5017020;28;20036;-84
2022/09/16 08:48:24;;;;;;;5.53;2.10;;;;;;;18.64;63.90;101063.31;5016937;28;20122;-84
2022/09/16 08:50:51;;;;;;;4.68;2.05;;;;;;;18.76;63.58;101066.66;5016788;28;20370;-84
2022/09/16 08:53:28;;;;;;;7.32;2.30;;;;;;;18.92;62.99;101064.53;5017376;28;20032;-84
2022/09/16 08:55:54;;;;;;;7.35;2.10;;;;;;;19.17;63.45;101075.63;5017097;28;20049;-85
2022/09/16 08:58:23;;;;;;;7.85;2.40;;;;;;;19.30;61.80;101070.91;5016529;28;20058;-85
2022/09/16 09:00:57;;;;;;;5.82;1.95;;;;;;;19.30;60.46;101064.66;5016976;28;20077;-83
2022/09/16 09:03:43;;;;;;;7.10;2.22;;;;;;;19.37;60.21;101069.00;5017344;28;20064;-85
2022/09/16 09:06:26;;;;;;;6.43;2.15;;;;;;;19.46;61.40;101075.00;5017106;28;20034;-82
2022/09/16 09:09:19;;;;;;;5.78;1.80;;;;;;;19.65;58.53;101078.19;5016263;28;20040;-83
2022/09/16 09:11:54;;;;;;;5.35;1.95;;;;;;;19.75;59.13;101073.50;5016803;28;20030;-83
2022/09/16 09:14:52;;;;;;;4.95;2.22;;;;;;;19.61;60.53;101076.50;5016710;28;20022;-82
2022/09/16 09:17:37;;;;;;;5.38;1.80;;;;;;;19.49;59.64;101069.59;5010853;28;20034;-83
2022/09/16 09:20:24;;;;;;;4.43;1.70;;;;;;;19.41;58.13;101074.25;5016253;28;20030;-84
2022/09/16 09:23:01;;;;;;;5.80;1.80;;;;;;;19.33;57.14;101060.13;5016534;28;20079;-85
2022/09/16 09:26:05;;;;;;;3.97;1.70;;;;;;;19.24;58.30;101068.38;5015865;28;20498;-86
2022/09/16 09:28:55;;;;;;;5.43;1.80;;;;;;;19.19;59.81;101076.50;5005308;28;20482;-85
2022/09/16 09:31:26;;;;;;;5.97;1.92;;;;;;;19.52;58.75;101074.00;5016173;28;20034;-85
2022/09/16 09:34:10;;;;;;;5.85;1.80;;;;;;;19.59;58.62;101067.59;5016470;28;20040;-86
2022/09/16 09:36:51;;;;;;;10.15;2.00;;;;;;;19.65;58.79;101072.81;5016036;28;20478;-86
2022/09/16 09:39:27;;;;;;;7.15;1.55;;;;;;;19.48;55.83;101062.44;5015825;28;20026;-86
2022/09/16 09:42:11;;;;;;;4.60;1.60;;;;;;;19.95;55.85;101065.84;5016278;28;20474;-86
2022/09/16 09:45:00;;;;;;;7.97;2.13;;;;;;;20.14;53.79;101094.94;5015953;28;20029;-83
2022/09/16 09:47:41;;;;;;;3.20;1.30;;;;;;;19.58;50.21;101098.00;5015702;28;20084;-83
2022/09/16 09:50:27;;;;;;;3.03;1.10;;;;;;;18.79;52.73;101113.03;5015823;28;20037;-85
2022/09/16 09:53:33;;;;;;;7.13;1.45;;;;;;;18.15;56.49;101107.84;5016047;28;20026;-87
2022/09/16 09:56:21;;;;;;;6.65;1.40;;;;;;;17.43;57.46;101111.56;5015770;28;20059;-83
2022/09/16 09:58:57;;;;;;;4.63;1.23;;;;;;;16.96;60.20;101109.50;5015661;28;20056;-81
2022/09/16 10:01:22;;;;;;;5.10;1.40;;;;;;;16.46;61.41;101102.84;4998999;28;20065;-85
2022/09/16 10:03:50;;;;;;;3.80;1.33;;;;;;;16.21;62.51;101104.84;5016076;28;20057;-80
2022/09/16 10:06:21;;;;;;;4.95;1.60;;;;;;;15.77;64.95;101101.63;5015427;28;20112;-80
2022/09/16 10:08:50;;;;;;;4.40;1.20;;;;;;;15.61;66.61;101102.56;5015815;28;20135;-79
2022/09/16 10:11:18;;;;;;;3.10;1.42;;;;;;;15.50;67.01;101099.06;4997389;28;20026;-78
2022/09/16 10:13:52;;;;;;;4.40;1.58;;;;;;;15.58;67.75;101112.34;5015311;28;20049;-78
2022/09/16 10:16:21;;;;;;;4.75;1.70;;;;;;;15.59;67.02;101108.78;4998490;28;20072;-78
2022/09/16 10:19:15;;;;;;;5.10;1.40;;;;;;;15.49;67.31;101095.50;5015252;28;20036;-78
2022/09/16 10:21:47;;;;;;;4.38;1.48;;;;;;;15.32;66.62;101097.38;5014456;28;20061;-78
2022/09/16 10:24:28;;;;;;;4.33;1.30;;;;;;;15.28;66.42;101084.97;5015051;28;20192;-78
2022/09/16 10:26:54;;;;;;;5.13;1.33;;;;;;;15.23;65.76;101085.00;5015102;28;20100;-78
2022/09/16 10:29:19;;;;;;;5.03;1.40;;;;;;;15.27;67.02;101085.88;5014570;28;20113;-78
2022/09/16 10:31:46;;;;;;;4.63;1.35;;;;;;;15.26;66.67;101095.63;5014603;28;20038;-80
2022/09/16 10:34:18;;;;;;;3.00;1.05;;;;;;;15.45;66.39;101088.44;5014676;28;20117;-80
2022/09/16 10:36:44;;;;;;;;;;;;;;;15.68;65.70;101084.81;5015364;28;20459;-78
2022/09/16 10:39:24;;;;;;;4.10;1.08;;;;;;;15.82;66.57;101082.03;5016638;28;19917;-81
2022/09/16 10:41:49;;;;;;;3.78;1.15;;;;;;;16.22;70.25;101086.16;5022047;28;20033;-80
2022/09/16 10:44:25;;;;;;;2.08;1.30;;;;;;;16.63;66.83;101084.00;5020041;28;20026;-81
2022/09/16 10:46:55;;;;;;;2.22;1.27;;;;;;;17.20;67.08;101087.81;5016801;28;20092;-81
2022/09/16 10:49:30;;;;;;;2.92;1.20;;;;;;;17.34;63.28;101090.28;5015647;28;20030;-80
2022/09/16 10:52:07;;;;;;;1.75;0.90;;;;;;;17.78;64.71;101091.53;5015957;28;20022;-82
2022/09/16 10:54:32;;;;;;;3.15;1.08;;;;;;;18.11;59.65;101083.84;5015420;28;20030;-80
2022/09/16 10:56:58;;;;;;;2.08;0.90;;;;;;;18.44;60.99;101077.03;4997764;28;20041;-80
2022/09/16 10:59:23;;;;;;;2.80;1.17;;;;;;;18.52;60.90;101084.03;5014188;28;20030;-81
2022/09/16 11:01:48;;;;;;;3.17;1.25;;;;;;;18.80;60.33;101080.88;5014496;28;20034;-80
2022/09/16 11:04:34;;;;;;;2.22;1.20;;;;;;;19.07;59.52;101074.09;5014789;28;20040;-81
2022/09/16 11:07:47;;;;;;;4.25;1.40;;;;;;;19.33;60.70;101070.84;5014472;28;20033;-81
2022/09/16 11:10:34;;;;;;;4.93;1.55;;;;;;;19.16;59.22;101073.88;4987446;28;20038;-81
2022/09/16 11:13:30;;;;;;;1.98;1.20;;;;;;;18.94;60.72;101084.16;5014558;28;20084;-81
2022/09/16 11:16:16;;;;;;;3.63;1.45;;;;;;;18.62;61.20;101087.41;5014027;28;20037;-81
2022/09/16 11:19:06;;;;;;;4.90;1.80;;;;;;;18.34;62.07;101092.38;4983543;28;20136;-81
2022/09/16 11:22:00;;;;;;;3.38;1.58;;;;;;;18.12;62.61;101091.88;4997403;28;20029;-84
2022/09/16 11:24:28;;;;;;;6.00;1.67;;;;;;;17.84;64.37;101093.22;4991900;28;20050;-83
2022/09/16 11:26:54;;;;;;;5.07;1.75;;;;;;;17.68;64.94;101092.50;5014114;28;20032;-82
2022/09/16 11:29:39;;;;;;;3.38;1.60;;;;;;;17.50;66.07;101090.97;5014024;28;20030;-81
2022/09/16 11:32:19;;;;;;;4.10;1.60;;;;;;;17.16;66.39;101088.75;4997148;28;20459;-83
2022/09/16 11:34:45;;;;;;;5.38;1.70;;;;;;;17.36;68.15;101083.16;5014074;28;20061;-84
2022/09/16 11:37:40;;;;;;;3.90;1.77;;;;;;;17.37;66.06;101094.72;5013969;28;20072;-81
2022/09/16 11:40:23;;;;;;;4.22;1.75;;;;;;;17.76;66.13;101096.00;4985879;28;20065;-83
2022/09/16 11:43:20;;;;;;;4.95;1.80;;;;;;;18.30;64.93;101090.69;5014069;28;20062;-84
2022/09/16 11:45:56;;;;;;;5.70;1.80;;;;;;;18.59;64.15;101089.28;5014006;28;20516;-83
2022/09/16 11:49:06;;;;;;;7.00;1.80;;;;;;;18.95;63.00;101083.25;5014422;28;20022;-84
2022/09/16 11:51:41;;;;;;;6.63;2.00;;;;;;;19.07;61.60;101076.75;5013879;28;20026;-84